Princeton's Hourly Summary for Saturday, May 12, 2018
Hour Temp
(f)
RH
(%)
Solar Rad.
(MJ/m2)
Rainfall
(in)
Wind
(mph)
5/12/2018 12:00 AM 74 63 0 0 5.86
5/12/2018 1:00 AM 74 68 0 0 8.88
5/12/2018 2:00 AM 74 71 0 0 9.61
5/12/2018 3:00 AM 73 73 0 0 10.5
5/12/2018 4:00 AM 72 77 0 0 10.04
5/12/2018 5:00 AM 71 80 0 0 9
5/12/2018 6:00 AM 72 79 0 0 7.67
5/12/2018 7:00 AM 71 81 0.03 0 6.45
5/12/2018 8:00 AM 72 83 0.23 0 5.72
5/12/2018 9:00 AM 73 80 0.49 0 6.34
5/12/2018 10:00 AM 75 71 1.21 0 8.24
5/12/2018 11:00 AM 77 65 2.3 0 9.25
5/12/2018 12:00 PM 79 58 2.71 0 9.84
5/12/2018 1:00 PM 82 51 3.32 0 9.78
5/12/2018 2:00 PM 83 46 3.26 0 10.14
5/12/2018 3:00 PM 85 42 3.33 0 9.69
5/12/2018 4:00 PM 86 41 2.93 0 9.77
5/12/2018 5:00 PM 86 42 2.21 0 9.31
5/12/2018 6:00 PM 86 44 1.75 0 8.41
5/12/2018 7:00 PM 85 44 1.02 0 7.33
5/12/2018 8:00 PM 82 48 0.28 0 5.11
5/12/2018 9:00 PM 79 55 0.01 0 2.07
5/12/2018 10:00 PM 76 62 0 0 1.36
5/12/2018 11:00 PM 75 66 0 0 1.41
Data Summary 77 62 25.08 0.00 7.57